sensor_id;sensor_type;location;lat;lon;timestamp;P1;durP1;ratioP1;P2;durP2;ratioP2
23590;SDS011;11973;52.098;7.582;2022-09-09T00:00:24;3.25;;;1.83;;
23590;SDS011;11973;52.098;7.582;2022-09-09T00:03:08;3.72;;;1.92;;
23590;SDS011;11973;52.098;7.582;2022-09-09T00:08:20;1.40;;;1.40;;
23590;SDS011;11973;52.098;7.582;2022-09-09T00:10:52;2.25;;;1.70;;
23590;SDS011;11973;52.098;7.582;2022-09-09T00:13:42;2.67;;;1.75;;
23590;SDS011;11973;52.098;7.582;2022-09-09T00:16:15;1.45;;;1.40;;
23590;SDS011;11973;52.098;7.582;2022-09-09T00:21:36;2.40;;;1.58;;
23590;SDS011;11973;52.098;7.582;2022-09-09T00:24:24;4.18;;;1.73;;
23590;SDS011;11973;52.098;7.582;2022-09-09T00:27:04;1.70;;;1.50;;
23590;SDS011;11973;52.098;7.582;2022-09-09T00:29:45;1.50;;;1.40;;
23590;SDS011;11973;52.098;7.582;2022-09-09T00:32:19;1.30;;;1.30;;
23590;SDS011;11973;52.098;7.582;2022-09-09T00:37:23;1.55;;;1.40;;
23590;SDS011;11973;52.098;7.582;2022-09-09T00:39:53;1.25;;;1.25;;
23590;SDS011;11973;52.098;7.582;2022-09-09T00:45:11;1.08;;;1.00;;
23590;SDS011;11973;52.098;7.582;2022-09-09T00:48:18;1.10;;;1.10;;
23590;SDS011;11973;52.098;7.582;2022-09-09T00:58:24;0.95;;;0.95;;
23590;SDS011;11973;52.098;7.582;2022-09-09T01:00:57;0.85;;;0.82;;
23590;SDS011;11973;52.098;7.582;2022-09-09T01:03:28;1.17;;;0.60;;
23590;SDS011;11973;52.098;7.582;2022-09-09T01:11:42;0.55;;;0.55;;
23590;SDS011;11973;52.098;7.582;2022-09-09T01:17:08;1.25;;;0.60;;
23590;SDS011;11973;52.098;7.582;2022-09-09T01:22:52;0.60;;;0.60;;
23590;SDS011;11973;52.098;7.582;2022-09-09T01:28:16;0.80;;;0.80;;
23590;SDS011;11973;52.098;7.582;2022-09-09T01:30:48;0.95;;;0.90;;
23590;SDS011;11973;52.098;7.582;2022-09-09T01:33:17;0.77;;;0.77;;
23590;SDS011;11973;52.098;7.582;2022-09-09T01:38:20;2.05;;;0.98;;
23590;SDS011;11973;52.098;7.582;2022-09-09T01:40:50;1.98;;;1.17;;
23590;SDS011;11973;52.098;7.582;2022-09-09T01:43:24;1.02;;;1.02;;
23590;SDS011;11973;52.098;7.582;2022-09-09T01:45:52;1.40;;;1.40;;
23590;SDS011;11973;52.098;7.582;2022-09-09T01:48:21;1.33;;;1.33;;
23590;SDS011;11973;52.098;7.582;2022-09-09T01:51:01;2.05;;;1.75;;
23590;SDS011;11973;52.098;7.582;2022-09-09T01:53:27;1.88;;;1.88;;
23590;SDS011;11973;52.098;7.582;2022-09-09T01:56:04;2.05;;;2.05;;
23590;SDS011;11973;52.098;7.582;2022-09-09T01:58:48;2.17;;;2.17;;
23590;SDS011;11973;52.098;7.582;2022-09-09T02:07:01;2.05;;;2.05;;
23590;SDS011;11973;52.098;7.582;2022-09-09T02:09:29;2.53;;;2.42;;
23590;SDS011;11973;52.098;7.582;2022-09-09T02:12:01;2.50;;;2.42;;
23590;SDS011;11973;52.098;7.582;2022-09-09T02:14:41;2.58;;;2.47;;
23590;SDS011;11973;52.098;7.582;2022-09-09T02:17:15;2.58;;;2.10;;
23590;SDS011;11973;52.098;7.582;2022-09-09T02:20:04;2.03;;;2.03;;
23590;SDS011;11973;52.098;7.582;2022-09-09T02:22:53;3.80;;;2.35;;
23590;SDS011;11973;52.098;7.582;2022-09-09T02:25:22;2.47;;;2.35;;
23590;SDS011;11973;52.098;7.582;2022-09-09T02:27:53;2.25;;;2.25;;
23590;SDS011;11973;52.098;7.582;2022-09-09T02:30:20;2.55;;;2.10;;
23590;SDS011;11973;52.098;7.582;2022-09-09T02:32:51;2.15;;;2.10;;
23590;SDS011;11973;52.098;7.582;2022-09-09T02:35:24;2.03;;;2.03;;
23590;SDS011;11973;52.098;7.582;2022-09-09T02:37:52;2.10;;;2.10;;
23590;SDS011;11973;52.098;7.582;2022-09-09T02:40:23;2.35;;;2.13;;
23590;SDS011;11973;52.098;7.582;2022-09-09T02:42:56;2.60;;;2.60;;
23590;SDS011;11973;52.098;7.582;2022-09-09T02:45:25;2.50;;;2.40;;
23590;SDS011;11973;52.098;7.582;2022-09-09T02:48:00;2.10;;;2.10;;
23590;SDS011;11973;52.098;7.582;2022-09-09T02:50:49;2.10;;;2.00;;
23590;SDS011;11973;52.098;7.582;2022-09-09T02:53:26;2.25;;;2.25;;
23590;SDS011;11973;52.098;7.582;2022-09-09T02:56:09;2.22;;;2.17;;
23590;SDS011;11973;52.098;7.582;2022-09-09T02:58:47;2.50;;;2.30;;
23590;SDS011;11973;52.098;7.582;2022-09-09T03:01:14;2.45;;;2.42;;
23590;SDS011;11973;52.098;7.582;2022-09-09T03:03:41;2.10;;;2.10;;
23590;SDS011;11973;52.098;7.582;2022-09-09T03:06:10;2.20;;;2.20;;
23590;SDS011;11973;52.098;7.582;2022-09-09T03:08:38;2.35;;;2.35;;
23590;SDS011;11973;52.098;7.582;2022-09-09T03:11:04;2.10;;;2.10;;
23590;SDS011;11973;52.098;7.582;2022-09-09T03:13:33;2.63;;;2.63;;
23590;SDS011;11973;52.098;7.582;2022-09-09T03:15:59;2.20;;;2.20;;
23590;SDS011;11973;52.098;7.582;2022-09-09T03:18:26;2.22;;;2.20;;
23590;SDS011;11973;52.098;7.582;2022-09-09T03:20:53;2.35;;;2.35;;
23590;SDS011;11973;52.098;7.582;2022-09-09T03:23:20;2.35;;;2.35;;
23590;SDS011;11973;52.098;7.582;2022-09-09T03:25:48;2.63;;;2.53;;
23590;SDS011;11973;52.098;7.582;2022-09-09T03:28:17;2.30;;;2.20;;
23590;SDS011;11973;52.098;7.582;2022-09-09T03:30:44;3.13;;;2.92;;
23590;SDS011;11973;52.098;7.582;2022-09-09T03:33:10;2.47;;;2.28;;
23590;SDS011;11973;52.098;7.582;2022-09-09T03:35:37;2.30;;;2.30;;
23590;SDS011;11973;52.098;7.582;2022-09-09T03:38:03;2.50;;;2.40;;
23590;SDS011;11973;52.098;7.582;2022-09-09T03:40:31;2.38;;;2.17;;
23590;SDS011;11973;52.098;7.582;2022-09-09T03:42:57;2.22;;;2.13;;
23590;SDS011;11973;52.098;7.582;2022-09-09T03:45:24;2.50;;;2.40;;
23590;SDS011;11973;52.098;7.582;2022-09-09T03:47:50;2.42;;;2.33;;
23590;SDS011;11973;52.098;7.582;2022-09-09T03:50:16;1.95;;;1.95;;
23590;SDS011;11973;52.098;7.582;2022-09-09T03:52:45;4.07;;;2.28;;
23590;SDS011;11973;52.098;7.582;2022-09-09T03:55:17;2.00;;;2.00;;
23590;SDS011;11973;52.098;7.582;2022-09-09T03:57:43;2.40;;;2.30;;
23590;SDS011;11973;52.098;7.582;2022-09-09T04:00:09;4.35;;;2.30;;
23590;SDS011;11973;52.098;7.582;2022-09-09T04:02:50;1.77;;;1.77;;
23590;SDS011;11973;52.098;7.582;2022-09-09T04:05:19;2.17;;;2.17;;
23590;SDS011;11973;52.098;7.582;2022-09-09T04:07:46;2.05;;;2.05;;
23590;SDS011;11973;52.098;7.582;2022-09-09T04:10:12;2.10;;;2.00;;
23590;SDS011;11973;52.098;7.582;2022-09-09T04:12:39;2.15;;;2.05;;
23590;SDS011;11973;52.098;7.582;2022-09-09T05:01:12;5.22;;;4.90;;
23590;SDS011;11973;52.098;7.582;2022-09-09T05:03:43;5.60;;;5.20;;
23590;SDS011;11973;52.098;7.582;2022-09-09T05:06:12;5.38;;;5.13;;
23590;SDS011;11973;52.098;7.582;2022-09-09T05:08:40;6.18;;;5.78;;
23590;SDS011;11973;52.098;7.582;2022-09-09T05:11:14;6.03;;;5.65;;
23590;SDS011;11973;52.098;7.582;2022-09-09T05:13:50;5.95;;;5.70;;
23590;SDS011;11973;52.098;7.582;2022-09-09T05:16:18;6.28;;;5.88;;
23590;SDS011;11973;52.098;7.582;2022-09-09T05:18:44;6.22;;;5.88;;
23590;SDS011;11973;52.098;7.582;2022-09-09T05:21:16;6.50;;;6.00;;
23590;SDS011;11973;52.098;7.582;2022-09-09T05:23:44;6.90;;;6.40;;
23590;SDS011;11973;52.098;7.582;2022-09-09T05:26:14;6.72;;;6.40;;
23590;SDS011;11973;52.098;7.582;2022-09-09T05:28:41;6.25;;;5.95;;
23590;SDS011;11973;52.098;7.582;2022-09-09T05:31:08;6.80;;;6.38;;
23590;SDS011;11973;52.098;7.582;2022-09-09T05:33:37;6.72;;;6.25;;
23590;SDS011;11973;52.098;7.582;2022-09-09T05:36:09;8.40;;;6.20;;
23590;SDS011;11973;52.098;7.582;2022-09-09T05:38:39;6.93;;;6.45;;
23590;SDS011;11973;52.098;7.582;2022-09-09T05:41:06;7.05;;;6.47;;
23590;SDS011;11973;52.098;7.582;2022-09-09T05:43:32;6.28;;;6.07;;
23590;SDS011;11973;52.098;7.582;2022-09-09T05:48:34;5.40;;;4.97;;
23590;SDS011;11973;52.098;7.582;2022-09-09T05:51:06;6.00;;;5.55;;
23590;SDS011;11973;52.098;7.582;2022-09-09T05:53:34;5.43;;;5.15;;
23590;SDS011;11973;52.098;7.582;2022-09-09T05:56:00;4.85;;;4.55;;
23590;SDS011;11973;52.098;7.582;2022-09-09T05:58:29;5.15;;;4.88;;
23590;SDS011;11973;52.098;7.582;2022-09-09T06:01:05;5.30;;;5.00;;
23590;SDS011;11973;52.098;7.582;2022-09-09T06:03:36;4.90;;;4.70;;
23590;SDS011;11973;52.098;7.582;2022-09-09T06:06:04;4.50;;;4.30;;
23590;SDS011;11973;52.098;7.582;2022-09-09T06:08:32;4.45;;;4.22;;
23590;SDS011;11973;52.098;7.582;2022-09-09T06:11:09;4.95;;;4.57;;
23590;SDS011;11973;52.098;7.582;2022-09-09T06:13:37;4.15;;;3.90;;
23590;SDS011;11973;52.098;7.582;2022-09-09T06:16:05;4.32;;;3.83;;
23590;SDS011;11973;52.098;7.582;2022-09-09T06:18:33;3.95;;;3.70;;
23590;SDS011;11973;52.098;7.582;2022-09-09T06:20:59;4.13;;;3.83;;
23590;SDS011;11973;52.098;7.582;2022-09-09T06:23:27;3.88;;;3.75;;
23590;SDS011;11973;52.098;7.582;2022-09-09T06:26:00;5.57;;;3.70;;
23590;SDS011;11973;52.098;7.582;2022-09-09T06:28:28;3.95;;;3.75;;
23590;SDS011;11973;52.098;7.582;2022-09-09T06:31:00;3.50;;;3.35;;
23590;SDS011;11973;52.098;7.582;2022-09-09T06:33:33;4.30;;;3.20;;
23590;SDS011;11973;52.098;7.582;2022-09-09T06:36:05;3.38;;;3.17;;
23590;SDS011;11973;52.098;7.582;2022-09-09T06:38:31;3.38;;;3.08;;
23590;SDS011;11973;52.098;7.582;2022-09-09T06:40:58;3.05;;;2.85;;
23590;SDS011;11973;52.098;7.582;2022-09-09T06:43:25;3.30;;;3.10;;
23590;SDS011;11973;52.098;7.582;2022-09-09T06:48:23;3.08;;;2.85;;
23590;SDS011;11973;52.098;7.582;2022-09-09T06:50:51;3.53;;;2.78;;
23590;SDS011;11973;52.098;7.582;2022-09-09T06:53:33;3.22;;;3.13;;
23590;SDS011;11973;52.098;7.582;2022-09-09T06:56:17;2.72;;;2.63;;
23590;SDS011;11973;52.098;7.582;2022-09-09T06:58:47;2.20;;;2.20;;
23590;SDS011;11973;52.098;7.582;2022-09-09T07:01:21;2.83;;;2.60;;
23590;SDS011;11973;52.098;7.582;2022-09-09T07:03:51;2.65;;;2.55;;
23590;SDS011;11973;52.098;7.582;2022-09-09T07:06:23;2.75;;;2.58;;
23590;SDS011;11973;52.098;7.582;2022-09-09T07:08:51;5.68;;;2.60;;
23590;SDS011;11973;52.098;7.582;2022-09-09T07:11:19;2.03;;;2.03;;
23590;SDS011;11973;52.098;7.582;2022-09-09T07:13:46;2.58;;;2.30;;
23590;SDS011;11973;52.098;7.582;2022-09-09T07:16:17;2.38;;;2.28;;
23590;SDS011;11973;52.098;7.582;2022-09-09T07:18:44;2.38;;;2.28;;
23590;SDS011;11973;52.098;7.582;2022-09-09T07:21:10;2.72;;;2.60;;
23590;SDS011;11973;52.098;7.582;2022-09-09T07:23:37;3.15;;;2.10;;
23590;SDS011;11973;52.098;7.582;2022-09-09T07:26:17;2.35;;;2.15;;
23590;SDS011;11973;52.098;7.582;2022-09-09T07:28:45;2.40;;;2.25;;
23590;SDS011;11973;52.098;7.582;2022-09-09T07:31:30;2.10;;;2.00;;
23590;SDS011;11973;52.098;7.582;2022-09-09T07:33:59;2.05;;;1.83;;
23590;SDS011;11973;52.098;7.582;2022-09-09T07:36:27;5.68;;;2.17;;
23590;SDS011;11973;52.098;7.582;2022-09-09T07:38:59;2.72;;;1.70;;
23590;SDS011;11973;52.098;7.582;2022-09-09T07:41:46;1.92;;;1.83;;
23590;SDS011;11973;52.098;7.582;2022-09-09T07:44:17;1.95;;;1.85;;
23590;SDS011;11973;52.098;7.582;2022-09-09T07:46:48;2.10;;;1.92;;
23590;SDS011;11973;52.098;7.582;2022-09-09T07:49:18;2.03;;;1.90;;
23590;SDS011;11973;52.098;7.582;2022-09-09T07:51:45;3.28;;;2.65;;
23590;SDS011;11973;52.098;7.582;2022-09-09T07:54:14;2.38;;;2.28;;
23590;SDS011;11973;52.098;7.582;2022-09-09T07:56:43;3.85;;;2.97;;
23590;SDS011;11973;52.098;7.582;2022-09-09T07:59:10;2.17;;;2.00;;
23590;SDS011;11973;52.098;7.582;2022-09-09T08:01:40;2.17;;;1.98;;
23590;SDS011;11973;52.098;7.582;2022-09-09T08:04:12;1.85;;;1.77;;
23590;SDS011;11973;52.098;7.582;2022-09-09T08:06:45;2.42;;;2.10;;
23590;SDS011;11973;52.098;7.582;2022-09-09T08:09:17;1.65;;;1.65;;
23590;SDS011;11973;52.098;7.582;2022-09-09T08:11:45;2.13;;;1.85;;
23590;SDS011;11973;52.098;7.582;2022-09-09T08:14:11;2.28;;;2.08;;
23590;SDS011;11973;52.098;7.582;2022-09-09T08:16:38;4.75;;;2.05;;
23590;SDS011;11973;52.098;7.582;2022-09-09T08:19:10;4.15;;;1.63;;
23590;SDS011;11973;52.098;7.582;2022-09-09T08:21:38;1.80;;;1.50;;
23590;SDS011;11973;52.098;7.582;2022-09-09T08:24:06;1.65;;;1.45;;
23590;SDS011;11973;52.098;7.582;2022-09-09T08:26:34;3.53;;;1.70;;
23590;SDS011;11973;52.098;7.582;2022-09-09T08:29:05;1.95;;;1.38;;
23590;SDS011;11973;52.098;7.582;2022-09-09T08:31:34;3.22;;;1.10;;
23590;SDS011;11973;52.098;7.582;2022-09-09T08:34:05;2.30;;;1.05;;
23590;SDS011;11973;52.098;7.582;2022-09-09T08:36:37;1.40;;;1.30;;
23590;SDS011;11973;52.098;7.582;2022-09-09T08:39:05;2.05;;;1.50;;
23590;SDS011;11973;52.098;7.582;2022-09-09T08:52:53;3.30;;;1.58;;
23590;SDS011;11973;52.098;7.582;2022-09-09T08:58:21;1.88;;;1.83;;
23590;SDS011;11973;52.098;7.582;2022-09-09T09:03:54;1.95;;;1.83;;
23590;SDS011;11973;52.098;7.582;2022-09-09T09:12:02;2.78;;;2.00;;
23590;SDS011;11973;52.098;7.582;2022-09-09T09:14:41;1.98;;;1.77;;
23590;SDS011;11973;52.098;7.582;2022-09-09T09:17:11;2.25;;;2.00;;
23590;SDS011;11973;52.098;7.582;2022-09-09T09:19:41;2.50;;;2.30;;
23590;SDS011;11973;52.098;7.582;2022-09-09T09:24:42;4.25;;;2.13;;
23590;SDS011;11973;52.098;7.582;2022-09-09T09:30:05;5.55;;;2.40;;
23590;SDS011;11973;52.098;7.582;2022-09-09T09:32:42;2.05;;;2.05;;
23590;SDS011;11973;52.098;7.582;2022-09-09T09:35:16;2.42;;;1.75;;
23590;SDS011;11973;52.098;7.582;2022-09-09T09:37:42;2.05;;;1.83;;
23590;SDS011;11973;52.098;7.582;2022-09-09T09:40:18;2.25;;;2.10;;
23590;SDS011;11973;52.098;7.582;2022-09-09T09:42:53;6.80;;;2.05;;
23590;SDS011;11973;52.098;7.582;2022-09-09T09:45:35;2.65;;;2.30;;
23590;SDS011;11973;52.098;7.582;2022-09-09T09:48:11;1.60;;;1.60;;
23590;SDS011;11973;52.098;7.582;2022-09-09T09:53:21;2.20;;;1.58;;
23590;SDS011;11973;52.098;7.582;2022-09-09T09:55:54;1.80;;;1.70;;
23590;SDS011;11973;52.098;7.582;2022-09-09T09:58:21;2.03;;;1.30;;
23590;SDS011;11973;52.098;7.582;2022-09-09T10:00:52;1.83;;;1.67;;
23590;SDS011;11973;52.098;7.582;2022-09-09T10:05:53;1.52;;;1.52;;
23590;SDS011;11973;52.098;7.582;2022-09-09T10:08:21;3.03;;;1.40;;
23590;SDS011;11973;52.098;7.582;2022-09-09T10:13:32;2.05;;;1.80;;
23590;SDS011;11973;52.098;7.582;2022-09-09T10:19:01;1.33;;;1.30;;
23590;SDS011;11973;52.098;7.582;2022-09-09T10:26:59;3.30;;;1.55;;
23590;SDS011;11973;52.098;7.582;2022-09-09T10:32:43;1.42;;;1.15;;
23590;SDS011;11973;52.098;7.582;2022-09-09T10:37:55;2.90;;;1.35;;
23590;SDS011;11973;52.098;7.582;2022-09-09T10:46:15;1.00;;;0.60;;
23590;SDS011;11973;52.098;7.582;2022-09-09T10:48:48;1.08;;;0.73;;
23590;SDS011;11973;52.098;7.582;2022-09-09T10:59:54;1.30;;;0.80;;
23590;SDS011;11973;52.098;7.582;2022-09-09T11:02:32;1.33;;;0.85;;
23590;SDS011;11973;52.098;7.582;2022-09-09T11:07:42;0.68;;;0.68;;
23590;SDS011;11973;52.098;7.582;2022-09-09T11:10:25;1.20;;;0.80;;
23590;SDS011;11973;52.098;7.582;2022-09-09T11:13:02;2.03;;;0.85;;
23590;SDS011;11973;52.098;7.582;2022-09-09T11:15:39;0.93;;;0.75;;
23590;SDS011;11973;52.098;7.582;2022-09-09T11:18:22;0.70;;;0.70;;
23590;SDS011;11973;52.098;7.582;2022-09-09T11:20:50;0.70;;;0.70;;
23590;SDS011;11973;52.098;7.582;2022-09-09T11:23:42;0.70;;;0.70;;
23590;SDS011;11973;52.098;7.582;2022-09-09T11:26:17;1.05;;;0.95;;
23590;SDS011;11973;52.098;7.582;2022-09-09T11:37:31;2.20;;;0.70;;
23590;SDS011;11973;52.098;7.582;2022-09-09T11:40:14;2.17;;;0.70;;
23590;SDS011;11973;52.098;7.582;2022-09-09T11:42:40;1.35;;;0.90;;
23590;SDS011;11973;52.098;7.582;2022-09-09T11:45:15;1.13;;;1.13;;
23590;SDS011;11973;52.098;7.582;2022-09-09T11:47:52;1.52;;;0.80;;
23590;SDS011;11973;52.098;7.582;2022-09-09T11:52:48;1.55;;;0.98;;
23590;SDS011;11973;52.098;7.582;2022-09-09T11:55:27;1.10;;;1.10;;
23590;SDS011;11973;52.098;7.582;2022-09-09T11:58:05;1.88;;;1.70;;
23590;SDS011;11973;52.098;7.582;2022-09-09T12:00:44;1.13;;;1.13;;
23590;SDS011;11973;52.098;7.582;2022-09-09T12:06:30;1.50;;;1.20;;
23590;SDS011;11973;52.098;7.582;2022-09-09T12:11:36;2.65;;;1.55;;
23590;SDS011;11973;52.098;7.582;2022-09-09T12:14:02;1.13;;;1.13;;
23590;SDS011;11973;52.098;7.582;2022-09-09T12:16:32;1.23;;;1.20;;
23590;SDS011;11973;52.098;7.582;2022-09-09T12:19:03;1.48;;;1.00;;
23590;SDS011;11973;52.098;7.582;2022-09-09T12:27:41;0.80;;;0.80;;
23590;SDS011;11973;52.098;7.582;2022-09-09T12:30:22;3.03;;;0.65;;
23590;SDS011;11973;52.098;7.582;2022-09-09T12:33:12;0.63;;;0.52;;
23590;SDS011;11973;52.098;7.582;2022-09-09T12:35:42;1.10;;;0.50;;
23590;SDS011;11973;52.098;7.582;2022-09-09T12:38:13;0.95;;;0.68;;
23590;SDS011;11973;52.098;7.582;2022-09-09T12:40:53;2.15;;;0.70;;
23590;SDS011;11973;52.098;7.582;2022-09-09T12:43:23;1.45;;;0.60;;
23590;SDS011;11973;52.098;7.582;2022-09-09T12:45:51;1.27;;;0.50;;
23590;SDS011;11973;52.098;7.582;2022-09-09T12:48:30;1.10;;;0.40;;
23590;SDS011;11973;52.098;7.582;2022-09-09T12:51:18;1.58;;;0.65;;
23590;SDS011;11973;52.098;7.582;2022-09-09T12:53:49;0.63;;;0.30;;
23590;SDS011;11973;52.098;7.582;2022-09-09T12:56:22;0.43;;;0.43;;
23590;SDS011;11973;52.098;7.582;2022-09-09T12:58:52;8.75;;;0.70;;
23590;SDS011;11973;52.098;7.582;2022-09-09T13:01:24;0.22;;;0.22;;
23590;SDS011;11973;52.098;7.582;2022-09-09T13:03:50;0.85;;;0.32;;
23590;SDS011;11973;52.098;7.582;2022-09-09T13:06:27;0.30;;;0.30;;
23590;SDS011;11973;52.098;7.582;2022-09-09T13:08:56;1.00;;;0.38;;
23590;SDS011;11973;52.098;7.582;2022-09-09T13:14:12;2.70;;;0.50;;
23590;SDS011;11973;52.098;7.582;2022-09-09T13:16:53;0.98;;;0.40;;
23590;SDS011;11973;52.098;7.582;2022-09-09T13:19:24;0.47;;;0.47;;
23590;SDS011;11973;52.098;7.582;2022-09-09T13:21:54;0.93;;;0.88;;
23590;SDS011;11973;52.098;7.582;2022-09-09T13:24:23;0.60;;;0.60;;
23590;SDS011;11973;52.098;7.582;2022-09-09T13:26:56;0.47;;;0.47;;
23590;SDS011;11973;52.098;7.582;2022-09-09T13:29:22;1.98;;;0.80;;
23590;SDS011;11973;52.098;7.582;2022-09-09T13:31:48;0.50;;;0.50;;
23590;SDS011;11973;52.098;7.582;2022-09-09T13:34:27;6.65;;;1.10;;
23590;SDS011;11973;52.098;7.582;2022-09-09T13:36:59;1.23;;;0.95;;
23590;SDS011;11973;52.098;7.582;2022-09-09T13:39:31;0.70;;;0.70;;
23590;SDS011;11973;52.098;7.582;2022-09-09T13:41:59;0.60;;;0.60;;
23590;SDS011;11973;52.098;7.582;2022-09-09T13:44:35;1.95;;;0.85;;
23590;SDS011;11973;52.098;7.582;2022-09-09T13:47:04;0.88;;;0.70;;
23590;SDS011;11973;52.098;7.582;2022-09-09T13:49:42;0.50;;;0.50;;
23590;SDS011;11973;52.098;7.582;2022-09-09T13:54:38;0.60;;;0.60;;
23590;SDS011;11973;52.098;7.582;2022-09-09T13:57:04;0.50;;;0.50;;
23590;SDS011;11973;52.098;7.582;2022-09-09T13:59:31;0.60;;;0.60;;
23590;SDS011;11973;52.098;7.582;2022-09-09T14:01:57;0.40;;;0.40;;
23590;SDS011;11973;52.098;7.582;2022-09-09T14:04:23;0.52;;;0.52;;
23590;SDS011;11973;52.098;7.582;2022-09-09T14:06:49;0.50;;;0.50;;
23590;SDS011;11973;52.098;7.582;2022-09-09T14:09:15;0.30;;;0.30;;
23590;SDS011;11973;52.098;7.582;2022-09-09T14:11:42;0.40;;;0.40;;
23590;SDS011;11973;52.098;7.582;2022-09-09T14:14:09;0.40;;;0.40;;
23590;SDS011;11973;52.098;7.582;2022-09-09T14:16:34;0.57;;;0.50;;
23590;SDS011;11973;52.098;7.582;2022-09-09T14:19:02;1.98;;;0.50;;
23590;SDS011;11973;52.098;7.582;2022-09-09T14:21:28;0.60;;;0.60;;
23590;SDS011;11973;52.098;7.582;2022-09-09T14:23:54;0.45;;;0.45;;
23590;SDS011;11973;52.098;7.582;2022-09-09T14:26:20;0.60;;;0.60;;
23590;SDS011;11973;52.098;7.582;2022-09-09T14:28:47;0.80;;;0.80;;
23590;SDS011;11973;52.098;7.582;2022-09-09T14:31:13;1.05;;;0.70;;
23590;SDS011;11973;52.098;7.582;2022-09-09T14:33:40;0.57;;;0.57;;
23590;SDS011;11973;52.098;7.582;2022-09-09T14:36:05;0.65;;;0.65;;
23590;SDS011;11973;52.098;7.582;2022-09-09T14:38:33;0.95;;;0.70;;
23590;SDS011;11973;52.098;7.582;2022-09-09T14:41:04;1.30;;;1.13;;
23590;SDS011;11973;52.098;7.582;2022-09-09T14:43:39;0.95;;;0.60;;
23590;SDS011;11973;52.098;7.582;2022-09-09T14:46:09;1.55;;;0.60;;
23590;SDS011;11973;52.098;7.582;2022-09-09T14:48:37;0.88;;;0.88;;
23590;SDS011;11973;52.098;7.582;2022-09-09T14:51:09;0.85;;;0.85;;
23590;SDS011;11973;52.098;7.582;2022-09-09T14:53:43;0.82;;;0.82;;
23590;SDS011;11973;52.098;7.582;2022-09-09T14:56:10;0.68;;;0.68;;
23590;SDS011;11973;52.098;7.582;2022-09-09T14:58:38;0.90;;;0.63;;
23590;SDS011;11973;52.098;7.582;2022-09-09T15:01:11;1.45;;;0.98;;
23590;SDS011;11973;52.098;7.582;2022-09-09T15:03:39;0.60;;;0.60;;
23590;SDS011;11973;52.098;7.582;2022-09-09T15:06:09;0.82;;;0.70;;
23590;SDS011;11973;52.098;7.582;2022-09-09T15:08:37;0.55;;;0.55;;
23590;SDS011;11973;52.098;7.582;2022-09-09T15:11:04;0.60;;;0.60;;
23590;SDS011;11973;52.098;7.582;2022-09-09T15:13:35;1.48;;;0.50;;
23590;SDS011;11973;52.098;7.582;2022-09-09T15:18:32;0.40;;;0.40;;
23590;SDS011;11973;52.098;7.582;2022-09-09T15:20:59;0.50;;;0.50;;
23590;SDS011;11973;52.098;7.582;2022-09-09T15:23:26;0.50;;;0.50;;
23590;SDS011;11973;52.098;7.582;2022-09-09T15:25:53;0.60;;;0.60;;
23590;SDS011;11973;52.098;7.582;2022-09-09T15:28:20;0.45;;;0.45;;
23590;SDS011;11973;52.098;7.582;2022-09-09T15:30:49;0.55;;;0.45;;
23590;SDS011;11973;52.098;7.582;2022-09-09T15:33:20;1.65;;;0.30;;
23590;SDS011;11973;52.098;7.582;2022-09-09T15:35:47;0.40;;;0.40;;
23590;SDS011;11973;52.098;7.582;2022-09-09T15:38:16;0.40;;;0.40;;
23590;SDS011;11973;52.098;7.582;2022-09-09T15:40:52;0.65;;;0.40;;
23590;SDS011;11973;52.098;7.582;2022-09-09T15:43:22;0.40;;;0.40;;
23590;SDS011;11973;52.098;7.582;2022-09-09T15:45:49;0.52;;;0.50;;
23590;SDS011;11973;52.098;7.582;2022-09-09T15:48:24;0.50;;;0.50;;
23590;SDS011;11973;52.098;7.582;2022-09-09T15:51:03;0.40;;;0.40;;
23590;SDS011;11973;52.098;7.582;2022-09-09T15:53:30;0.75;;;0.50;;
23590;SDS011;11973;52.098;7.582;2022-09-09T15:55:57;1.27;;;0.40;;
23590;SDS011;11973;52.098;7.582;2022-09-09T15:58:24;0.40;;;0.40;;
23590;SDS011;11973;52.098;7.582;2022-09-09T16:00:50;0.30;;;0.30;;
23590;SDS011;11973;52.098;7.582;2022-09-09T16:03:16;1.83;;;0.40;;
23590;SDS011;11973;52.098;7.582;2022-09-09T16:05:42;0.45;;;0.45;;
23590;SDS011;11973;52.098;7.582;2022-09-09T16:08:08;0.50;;;0.50;;
23590;SDS011;11973;52.098;7.582;2022-09-09T16:10:34;0.68;;;0.45;;
23590;SDS011;11973;52.098;7.582;2022-09-09T16:12:59;0.40;;;0.40;;
23590;SDS011;11973;52.098;7.582;2022-09-09T16:15:25;0.43;;;0.43;;
23590;SDS011;11973;52.098;7.582;2022-09-09T16:17:53;0.50;;;0.50;;
23590;SDS011;11973;52.098;7.582;2022-09-09T16:20:19;0.30;;;0.30;;
23590;SDS011;11973;52.098;7.582;2022-09-09T16:22:45;0.43;;;0.43;;
23590;SDS011;11973;52.098;7.582;2022-09-09T16:25:11;1.08;;;0.50;;
23590;SDS011;11973;52.098;7.582;2022-09-09T16:27:37;0.40;;;0.40;;
23590;SDS011;11973;52.098;7.582;2022-09-09T16:30:03;1.55;;;0.40;;
23590;SDS011;11973;52.098;7.582;2022-09-09T16:32:29;1.67;;;0.35;;
23590;SDS011;11973;52.098;7.582;2022-09-09T16:34:57;0.63;;;0.52;;
23590;SDS011;11973;52.098;7.582;2022-09-09T16:37:23;2.92;;;0.50;;
23590;SDS011;11973;52.098;7.582;2022-09-09T16:39:49;0.70;;;0.55;;
23590;SDS011;11973;52.098;7.582;2022-09-09T16:42:15;0.52;;;0.52;;
23590;SDS011;11973;52.098;7.582;2022-09-09T16:44:42;1.25;;;0.90;;
23590;SDS011;11973;52.098;7.582;2022-09-09T16:47:07;1.13;;;0.73;;
23590;SDS011;11973;52.098;7.582;2022-09-09T16:49:35;1.25;;;1.15;;
23590;SDS011;11973;52.098;7.582;2022-09-09T16:52:02;1.98;;;1.00;;
23590;SDS011;11973;52.098;7.582;2022-09-09T16:54:27;0.98;;;0.90;;
23590;SDS011;11973;52.098;7.582;2022-09-09T16:56:54;0.82;;;0.82;;
23590;SDS011;11973;52.098;7.582;2022-09-09T16:59:20;1.35;;;0.90;;
23590;SDS011;11973;52.098;7.582;2022-09-09T17:01:47;0.82;;;0.80;;
23590;SDS011;11973;52.098;7.582;2022-09-09T17:04:16;1.17;;;1.08;;
23590;SDS011;11973;52.098;7.582;2022-09-09T17:06:52;1.90;;;0.93;;
23590;SDS011;11973;52.098;7.582;2022-09-09T17:09:19;1.77;;;0.93;;
23590;SDS011;11973;52.098;7.582;2022-09-09T17:11:45;0.77;;;0.77;;
23590;SDS011;11973;52.098;7.582;2022-09-09T17:14:14;0.80;;;0.80;;
23590;SDS011;11973;52.098;7.582;2022-09-09T17:16:42;2.05;;;0.90;;
23590;SDS011;11973;52.098;7.582;2022-09-09T17:19:08;0.85;;;0.85;;
23590;SDS011;11973;52.098;7.582;2022-09-09T17:21:35;0.68;;;0.68;;
23590;SDS011;11973;52.098;7.582;2022-09-09T17:24:01;0.85;;;0.85;;
23590;SDS011;11973;52.098;7.582;2022-09-09T17:26:30;0.90;;;0.90;;
23590;SDS011;11973;52.098;7.582;2022-09-09T17:28:59;1.40;;;1.00;;
23590;SDS011;11973;52.098;7.582;2022-09-09T17:31:26;0.90;;;0.90;;
23590;SDS011;11973;52.098;7.582;2022-09-09T17:33:53;1.05;;;0.90;;
23590;SDS011;11973;52.098;7.582;2022-09-09T17:36:30;1.02;;;1.00;;
23590;SDS011;11973;52.098;7.582;2022-09-09T17:38:58;1.55;;;1.15;;
23590;SDS011;11973;52.098;7.582;2022-09-09T17:41:29;1.08;;;1.08;;
23590;SDS011;11973;52.098;7.582;2022-09-09T17:43:57;1.52;;;1.52;;
23590;SDS011;11973;52.098;7.582;2022-09-09T17:46:25;2.00;;;1.90;;
23590;SDS011;11973;52.098;7.582;2022-09-09T17:48:54;2.05;;;1.95;;
23590;SDS011;11973;52.098;7.582;2022-09-09T17:51:23;1.10;;;1.10;;
23590;SDS011;11973;52.098;7.582;2022-09-09T17:53:53;1.65;;;1.55;;
23590;SDS011;11973;52.098;7.582;2022-09-09T17:56:21;1.95;;;1.85;;
23590;SDS011;11973;52.098;7.582;2022-09-09T17:58:50;1.90;;;1.80;;
23590;SDS011;11973;52.098;7.582;2022-09-09T18:01:18;1.80;;;1.70;;
23590;SDS011;11973;52.098;7.582;2022-09-09T18:03:45;2.00;;;1.90;;
23590;SDS011;11973;52.098;7.582;2022-09-09T18:06:17;2.78;;;1.63;;
23590;SDS011;11973;52.098;7.582;2022-09-09T18:08:48;1.63;;;1.50;;
23590;SDS011;11973;52.098;7.582;2022-09-09T18:11:15;1.33;;;1.33;;
23590;SDS011;11973;52.098;7.582;2022-09-09T18:13:42;2.05;;;1.95;;
23590;SDS011;11973;52.098;7.582;2022-09-09T18:16:08;1.77;;;1.63;;
23590;SDS011;11973;52.098;7.582;2022-09-09T18:18:34;1.20;;;1.20;;